createdAt,value
2019-05-21T00:00:13.247Z,20.83
2019-05-21T00:00:59.302Z,19.87
2019-05-21T00:01:45.529Z,20.50
2019-05-21T00:02:31.627Z,20.50
2019-05-21T00:03:17.744Z,19.37
2019-05-21T00:04:03.869Z,19.27
2019-05-21T00:04:49.940Z,20.43
2019-05-21T00:05:36.241Z,19.73
2019-05-21T00:06:22.516Z,20.13
2019-05-21T00:07:08.855Z,20.13
2019-05-21T00:07:55.403Z,22.73
2019-05-21T00:08:41.933Z,22.27
2019-05-21T00:09:28.530Z,21.47
2019-05-21T00:10:14.919Z,22.10
2019-05-21T00:11:01.306Z,20.43
2019-05-21T00:11:47.772Z,21.10
2019-05-21T00:12:34.247Z,22.10
2019-05-21T00:13:20.775Z,21.80
2019-05-21T00:14:07.231Z,21.90
2019-05-21T00:14:53.129Z,25.10
2019-05-21T00:15:39.817Z,24.17
2019-05-21T00:16:25.998Z,26.30
2019-05-21T00:17:13.009Z,25.43
2019-05-21T00:17:59.291Z,26.87
2019-05-21T00:18:44.963Z,26.00
2019-05-21T00:19:31.152Z,26.10
2019-05-21T00:20:16.935Z,24.93
2019-05-21T00:21:02.696Z,24.83
2019-05-21T00:21:48.335Z,25.97
2019-05-21T00:22:34.153Z,26.77
2019-05-21T00:23:20.317Z,28.07
2019-05-21T00:24:06.488Z,27.07
2019-05-21T00:24:52.391Z,26.67
2019-05-21T00:25:38.577Z,26.50
2019-05-21T00:26:24.439Z,25.33
2019-05-21T00:27:10.702Z,24.93
2019-05-21T00:28:29.306Z,27.03
2019-05-21T00:29:51.800Z,24.47
2019-05-21T00:31:14.482Z,25.50
2019-05-21T00:32:36.449Z,24.17
2019-05-21T00:33:58.717Z,25.43
2019-05-21T00:35:22.458Z,24.60
2019-05-21T00:36:44.673Z,23.67
2019-05-21T00:38:06.995Z,24.07
2019-05-21T00:39:29.238Z,24.83
2019-05-21T00:40:51.629Z,24.83
2019-05-21T00:42:04.740Z,25.67
2019-05-21T00:42:50.712Z,25.90
2019-05-21T00:43:49.138Z,26.67
2019-05-21T00:44:39.206Z,25.83
2019-05-21T00:45:25.423Z,26.53
2019-05-21T00:46:11.619Z,28.20
2019-05-21T00:46:57.695Z,27.37
2019-05-21T00:47:43.760Z,26.70
2019-05-21T00:48:29.900Z,26.57
2019-05-21T00:49:15.647Z,28.53
2019-05-21T00:50:01.933Z,28.87
2019-05-21T00:50:48.327Z,27.83
2019-05-21T00:51:33.955Z,28.43
2019-05-21T00:52:19.659Z,27.47
2019-05-21T00:53:05.356Z,27.63
2019-05-21T00:53:51.489Z,29.10
2019-05-21T00:54:37.167Z,29.97
2019-05-21T00:55:23.396Z,29.77
2019-05-21T00:56:09.249Z,27.43
2019-05-21T00:56:54.952Z,28.37
2019-05-21T00:57:40.669Z,29.10
2019-05-21T00:58:26.434Z,29.67
2019-05-21T00:59:12.216Z,27.23
2019-05-21T00:59:57.930Z,27.77
2019-05-21T01:00:43.689Z,28.03
2019-05-21T01:01:29.335Z,26.97
2019-05-21T01:02:15.027Z,29.10
2019-05-21T01:03:01.021Z,27.17
2019-05-21T01:03:46.810Z,27.63
2019-05-21T01:04:32.755Z,27.03
2019-05-21T01:05:18.417Z,27.13
2019-05-21T01:06:04.359Z,27.43
2019-05-21T01:06:50.032Z,27.37
2019-05-21T01:07:35.740Z,29.83
2019-05-21T01:08:21.823Z,27.83
2019-05-21T01:09:07.611Z,28.27
2019-05-21T01:09:53.340Z,27.87
2019-05-21T01:10:39.545Z,28.27
2019-05-21T01:11:25.775Z,27.37
2019-05-21T01:12:11.479Z,28.87
2019-05-21T01:12:57.126Z,28.23
2019-05-21T01:13:43.177Z,28.73
2019-05-21T01:14:28.832Z,27.77
2019-05-21T01:15:14.476Z,27.83
2019-05-21T01:16:00.419Z,29.07
2019-05-21T01:16:46.091Z,28.67
2019-05-21T01:17:31.763Z,28.30
2019-05-21T01:18:17.471Z,26.73
2019-05-21T01:19:03.670Z,28.70
2019-05-21T01:19:49.440Z,29.00
2019-05-21T01:20:35.237Z,27.40
2019-05-21T01:21:21.019Z,27.90
2019-05-21T01:22:06.812Z,28.10
2019-05-21T01:22:52.541Z,30.20
2019-05-21T01:23:38.139Z,28.97
2019-05-21T01:24:23.887Z,26.97
2019-05-21T01:25:09.966Z,27.40
2019-05-21T01:25:55.851Z,29.27
2019-05-21T01:26:41.487Z,28.90
2019-05-21T01:27:27.164Z,27.70
2019-05-21T01:28:12.781Z,28.37
2019-05-21T01:28:58.940Z,28.33
2019-05-21T01:29:44.624Z,26.97
2019-05-21T01:30:30.777Z,28.13
2019-05-21T01:31:16.466Z,28.77
2019-05-21T01:32:02.330Z,30.13
2019-05-21T01:32:48.553Z,30.23
2019-05-21T01:33:34.889Z,30.20
2019-05-21T01:34:21.103Z,29.60
2019-05-21T01:35:16.625Z,29.00
2019-05-21T01:35:55.433Z,28.10
2019-05-21T01:36:41.204Z,28.90
2019-05-21T01:37:27.055Z,29.67
2019-05-21T01:38:13.076Z,27.00
2019-05-21T01:38:59.190Z,27.80
2019-05-21T01:39:45.379Z,28.60
2019-05-21T01:40:31.263Z,29.93
2019-05-21T01:41:17.152Z,30.53
2019-05-21T01:42:02.852Z,28.90
2019-05-21T01:42:49.035Z,27.77
2019-05-21T01:43:35.210Z,28.53
2019-05-21T01:44:21.442Z,30.57
2019-05-21T01:45:07.755Z,29.03
2019-05-21T01:45:53.720Z,29.27
2019-05-21T01:46:39.639Z,28.47
2019-05-21T01:47:25.395Z,29.57
2019-05-21T01:48:11.135Z,28.23
2019-05-21T01:48:56.900Z,27.70
2019-05-21T01:49:42.733Z,28.87
2019-05-21T01:50:28.504Z,28.17
2019-05-21T01:51:14.421Z,29.70
2019-05-21T01:52:00.121Z,29.57
2019-05-21T01:52:45.778Z,31.33
2019-05-21T01:53:31.558Z,30.97
2019-05-21T01:54:17.570Z,30.70
2019-05-21T01:55:03.628Z,30.00
2019-05-21T01:55:49.563Z,28.63
2019-05-21T01:56:35.596Z,31.83
2019-05-21T01:57:21.423Z,30.03
2019-05-21T01:58:07.801Z,29.43
2019-05-21T01:58:53.783Z,27.73
2019-05-21T01:59:40.315Z,29.63
2019-05-21T02:00:26.880Z,28.23
2019-05-21T02:01:13.218Z,28.67
2019-05-21T02:01:59.685Z,31.37
2019-05-21T02:02:45.780Z,30.43
2019-05-21T02:03:32.459Z,29.93
2019-05-21T02:04:19.093Z,30.53
2019-05-21T02:05:05.913Z,28.77
2019-05-21T02:05:52.451Z,29.73
2019-05-21T02:06:38.759Z,31.33
2019-05-21T02:07:25.439Z,29.63
2019-05-21T02:08:11.696Z,28.23
2019-05-21T02:08:58.110Z,30.00
2019-05-21T02:10:00.506Z,31.07
2019-05-21T02:10:46.915Z,29.67
2019-05-21T02:11:33.057Z,30.23
2019-05-21T02:12:18.740Z,29.90
2019-05-21T02:13:04.787Z,29.97
2019-05-21T02:13:50.900Z,29.17
2019-05-21T02:14:36.600Z,28.10
2019-05-21T02:15:22.797Z,29.93
2019-05-21T02:16:08.689Z,29.53
2019-05-21T02:16:54.784Z,29.17
2019-05-21T02:17:41.015Z,28.40
2019-05-21T02:18:26.650Z,28.57
2019-05-21T02:19:12.435Z,27.87
2019-05-21T02:19:58.153Z,30.63
2019-05-21T02:20:43.977Z,28.70
2019-05-21T02:21:29.822Z,28.97
2019-05-21T02:22:15.572Z,28.50
2019-05-21T02:23:01.810Z,26.63
2019-05-21T02:23:47.754Z,27.87
2019-05-21T02:24:33.612Z,28.90
2019-05-21T02:25:19.290Z,28.73
2019-05-21T02:26:05.192Z,26.57
2019-05-21T02:26:51.297Z,28.77
2019-05-21T02:27:36.950Z,25.23
2019-05-21T02:28:22.624Z,27.30
2019-05-21T02:29:08.343Z,27.10
2019-05-21T02:29:54.492Z,26.37
2019-05-21T02:30:40.327Z,28.10
2019-05-21T02:31:26.529Z,27.40
2019-05-21T02:32:12.264Z,26.37
2019-05-21T02:32:58.596Z,25.70
2019-05-21T02:33:44.801Z,26.27
2019-05-21T02:34:30.670Z,25.67
2019-05-21T02:35:16.443Z,28.00
2019-05-21T02:36:02.391Z,28.77
2019-05-21T02:36:47.958Z,28.10
2019-05-21T02:37:33.732Z,30.67
2019-05-21T02:38:20.011Z,30.73
2019-05-21T02:39:06.432Z,29.80
2019-05-21T02:39:52.335Z,27.57
2019-05-21T02:40:38.897Z,27.73
2019-05-21T02:41:25.292Z,27.37
2019-05-21T02:42:11.630Z,26.80
2019-05-21T02:42:57.610Z,28.50
2019-05-21T02:43:44.066Z,27.13
2019-05-21T02:44:30.212Z,27.03
2019-05-21T02:45:16.926Z,26.73
2019-05-21T02:46:03.224Z,27.27
2019-05-21T02:46:48.973Z,25.93
2019-05-21T02:47:34.663Z,28.90
2019-05-21T02:48:20.910Z,24.60
2019-05-21T02:49:06.669Z,25.30
2019-05-21T02:49:52.970Z,27.63
2019-05-21T02:50:38.697Z,26.87
2019-05-21T02:51:24.741Z,25.97
2019-05-21T02:52:10.613Z,27.03
2019-05-21T02:52:56.389Z,26.33
2019-05-21T02:53:42.403Z,28.27
2019-05-21T02:54:40.348Z,26.60
2019-05-21T02:55:15.798Z,27.17
2019-05-21T02:56:01.749Z,28.20
2019-05-21T02:56:47.855Z,27.97
2019-05-21T02:57:40.669Z,27.97
2019-05-21T02:58:26.804Z,25.53
2019-05-21T02:59:13.069Z,26.00
2019-05-21T03:00:01.074Z,24.80
2019-05-21T03:01:02.115Z,26.57
2019-05-21T03:01:56.708Z,26.57
2019-05-21T03:02:42.663Z,24.50
2019-05-21T03:03:29.734Z,27.00
2019-05-21T03:04:15.553Z,25.80
2019-05-21T03:05:01.259Z,24.80
2019-05-21T03:05:46.983Z,28.70
2019-05-21T03:06:32.753Z,27.43
2019-05-21T03:07:18.658Z,26.40
2019-05-21T03:08:04.902Z,25.60
2019-05-21T03:08:51.090Z,28.80
2019-05-21T03:09:37.216Z,29.23
2019-05-21T03:10:22.917Z,27.67
2019-05-21T03:11:08.912Z,27.13
2019-05-21T03:11:55.016Z,27.77
2019-05-21T03:12:40.843Z,27.07
2019-05-21T03:13:27.139Z,28.17
2019-05-21T03:14:13.249Z,28.13
2019-05-21T03:14:59.130Z,27.37
2019-05-21T03:15:45.329Z,29.30
2019-05-21T03:16:30.932Z,30.50
2019-05-21T03:17:16.647Z,29.70
2019-05-21T03:18:02.491Z,30.37
2019-05-21T03:18:48.235Z,32.27
2019-05-21T03:19:34.032Z,32.53
2019-05-21T03:20:19.948Z,31.73
2019-05-21T03:21:05.878Z,30.83
2019-05-21T03:21:51.615Z,29.70
2019-05-21T03:22:37.833Z,33.47
2019-05-21T03:23:23.425Z,32.87
2019-05-21T03:24:09.162Z,29.57
2019-05-21T03:24:55.286Z,32.43
2019-05-21T03:25:41.417Z,32.87
2019-05-21T03:26:27.103Z,32.17
2019-05-21T03:27:13.346Z,30.60
2019-05-21T03:27:59.483Z,30.13
2019-05-21T03:28:45.158Z,32.43
2019-05-21T03:29:30.918Z,30.73
2019-05-21T03:30:16.740Z,31.23
2019-05-21T03:31:03.102Z,31.83
2019-05-21T03:31:49.411Z,30.97
2019-05-21T03:32:35.609Z,34.10
2019-05-21T03:33:22.028Z,31.43
2019-05-21T03:34:08.299Z,32.97
2019-05-21T03:34:54.525Z,29.60
2019-05-21T03:35:40.844Z,32.67
2019-05-21T03:36:33.191Z,32.33
2019-05-21T03:37:14.843Z,29.80
2019-05-21T03:38:01.504Z,30.10
2019-05-21T03:38:48.067Z,30.60
2019-05-21T03:39:34.322Z,29.77
2019-05-21T03:40:20.576Z,30.13
2019-05-21T03:41:06.803Z,32.97
2019-05-21T03:41:53.236Z,32.03
2019-05-21T03:42:39.761Z,29.13
2019-05-21T03:43:25.961Z,31.97
2019-05-21T03:44:11.897Z,29.00
2019-05-21T03:45:00.327Z,28.97
2019-05-21T03:45:45.888Z,29.33
2019-05-21T03:46:33.219Z,26.63
2019-05-21T03:47:18.928Z,27.43
2019-05-21T03:48:05.134Z,27.57
2019-05-21T03:48:51.328Z,25.47
2019-05-21T03:49:36.996Z,27.73
2019-05-21T03:50:23.212Z,29.37
2019-05-21T03:51:09.694Z,28.77
2019-05-21T03:51:55.892Z,26.30
2019-05-21T03:52:41.991Z,25.53
2019-05-21T03:53:27.964Z,28.83
2019-05-21T03:54:14.263Z,30.30
2019-05-21T03:55:03.026Z,29.43
2019-05-21T03:55:49.174Z,28.97
2019-05-21T03:56:35.713Z,29.00
2019-05-21T03:57:21.435Z,28.50
2019-05-21T03:58:07.462Z,27.33
2019-05-21T03:58:53.773Z,30.37
2019-05-21T03:59:39.894Z,32.20
2019-05-21T04:00:26.595Z,30.27
2019-05-21T04:01:13.206Z,34.63
2019-05-21T04:01:59.280Z,34.10
2019-05-21T04:02:45.365Z,33.73
2019-05-21T04:03:31.370Z,33.67
2019-05-21T04:04:17.280Z,33.87
2019-05-21T04:05:04.777Z,35.03
2019-05-21T04:05:50.741Z,34.87
2019-05-21T04:06:51.292Z,33.97
2019-05-21T04:07:24.542Z,33.00
2019-05-21T04:08:10.191Z,34.20
2019-05-21T04:08:56.204Z,35.63
2019-05-21T04:09:42.109Z,35.40
2019-05-21T04:10:28.315Z,34.87
2019-05-21T04:11:14.366Z,34.57
2019-05-21T04:12:00.397Z,37.47
2019-05-21T04:13:05.130Z,36.00
2019-05-21T04:13:51.415Z,36.63
2019-05-21T04:14:41.992Z,36.83
2019-05-21T04:15:28.740Z,40.73
2019-05-21T04:16:21.825Z,40.30
2019-05-21T04:17:15.224Z,35.90
2019-05-21T04:18:05.208Z,38.60
2019-05-21T04:18:57.160Z,36.93
2019-05-21T04:19:42.991Z,35.33
2019-05-21T04:20:29.457Z,36.43
2019-05-21T04:21:15.927Z,37.23
2019-05-21T04:22:02.062Z,40.40
2019-05-21T04:22:53.866Z,39.73
2019-05-21T04:23:39.866Z,39.77
2019-05-21T04:24:26.420Z,39.23
2019-05-21T04:25:12.525Z,37.43
2019-05-21T04:25:59.049Z,38.23
2019-05-21T04:26:45.288Z,39.00
2019-05-21T04:27:31.922Z,38.10
2019-05-21T04:28:17.999Z,36.87
2019-05-21T04:29:05.265Z,41.77
2019-05-21T04:29:51.809Z,39.17
2019-05-21T04:30:38.006Z,36.60
2019-05-21T04:31:23.690Z,35.83
2019-05-21T04:32:09.583Z,39.33
2019-05-21T04:32:56.577Z,37.10
2019-05-21T04:33:42.667Z,45.93
2019-05-21T04:34:28.344Z,39.23
2019-05-21T04:35:13.941Z,36.53
2019-05-21T04:35:59.849Z,39.03
2019-05-21T04:36:45.570Z,40.60
2019-05-21T04:37:31.704Z,40.30
2019-05-21T04:38:17.433Z,40.33
2019-05-21T04:39:05.083Z,42.33
2019-05-21T04:39:51.162Z,37.90
2019-05-21T04:40:37.125Z,39.30
2019-05-21T04:41:22.848Z,44.23
2019-05-21T04:42:08.539Z,40.43
2019-05-21T04:42:54.255Z,39.90
2019-05-21T04:43:40.495Z,40.80
2019-05-21T04:44:29.986Z,40.47
2019-05-21T04:45:15.935Z,45.37
2019-05-21T04:46:01.773Z,45.63
2019-05-21T04:46:48.144Z,41.67
2019-05-21T04:47:34.387Z,38.23
2019-05-21T04:48:20.653Z,39.20
2019-05-21T04:49:06.782Z,39.13
2019-05-21T04:49:52.887Z,41.67
2019-05-21T04:50:38.910Z,42.27
2019-05-21T04:51:25.275Z,39.90
2019-05-21T04:52:11.207Z,38.03
2019-05-21T04:52:56.960Z,39.17
2019-05-21T04:53:42.983Z,41.60
2019-05-21T04:54:29.247Z,39.10
2019-05-21T04:55:15.469Z,39.23
2019-05-21T04:56:01.208Z,38.57
2019-05-21T04:56:47.414Z,38.57
2019-05-21T04:57:37.156Z,40.37
2019-05-21T04:58:21.228Z,38.73
2019-05-21T04:59:06.893Z,38.80
2019-05-21T04:59:52.632Z,38.50
2019-05-21T05:00:38.367Z,39.53
2019-05-21T05:01:24.145Z,37.77
2019-05-21T05:02:09.914Z,42.50
2019-05-21T05:02:55.756Z,41.87
2019-05-21T05:03:41.567Z,42.87
2019-05-21T05:04:27.261Z,39.50
2019-05-21T05:05:13.137Z,40.23
2019-05-21T05:05:59.310Z,39.27
2019-05-21T05:06:45.102Z,38.13
2019-05-21T05:07:31.254Z,41.53
2019-05-21T05:08:17.423Z,38.33
2019-05-21T05:09:04.845Z,39.67
2019-05-21T05:09:50.834Z,40.40
2019-05-21T05:10:37.999Z,43.37
2019-05-21T05:11:24.391Z,39.33
2019-05-21T05:12:13.570Z,37.70
2019-05-21T05:12:59.478Z,39.67
2019-05-21T05:13:45.453Z,38.37
2019-05-21T05:14:31.787Z,38.83
2019-05-21T05:15:17.724Z,42.37
2019-05-21T05:16:04.579Z,42.57
2019-05-21T05:16:50.703Z,41.37
2019-05-21T05:17:36.799Z,41.60
2019-05-21T05:18:22.950Z,41.77
2019-05-21T05:19:08.639Z,39.70
2019-05-21T05:19:54.508Z,39.57
2019-05-21T05:20:40.624Z,42.00
2019-05-21T05:21:26.510Z,41.23
2019-05-21T05:22:12.675Z,40.53
2019-05-21T05:22:58.932Z,40.77
2019-05-21T05:23:46.370Z,36.93
2019-05-21T05:24:32.852Z,39.80
2019-05-21T05:25:19.304Z,38.77
2019-05-21T05:26:06.301Z,38.20
2019-05-21T05:26:52.631Z,41.70
2019-05-21T05:27:38.761Z,42.73
2019-05-21T05:28:25.068Z,40.87
2019-05-21T05:29:11.287Z,38.77
2019-05-21T05:29:57.713Z,39.27
2019-05-21T05:30:45.028Z,38.30
2019-05-21T05:31:31.000Z,38.93
2019-05-21T05:32:16.930Z,40.27
2019-05-21T05:33:02.972Z,37.53
2019-05-21T05:33:49.377Z,37.93
2019-05-21T05:34:35.766Z,40.70
2019-05-21T05:35:21.741Z,42.50
2019-05-21T05:36:08.433Z,41.07
2019-05-21T05:36:54.520Z,38.30
2019-05-21T05:37:45.244Z,40.03
2019-05-21T05:38:29.052Z,38.63
2019-05-21T05:39:15.459Z,42.80
2019-05-21T05:40:01.671Z,39.50
2019-05-21T05:40:50.355Z,39.90
2019-05-21T05:41:39.129Z,41.30
2019-05-21T05:42:24.917Z,40.50
2019-05-21T05:43:11.148Z,40.67
2019-05-21T05:43:58.152Z,40.43
2019-05-21T05:44:43.929Z,39.17
2019-05-21T05:45:30.576Z,39.83
2019-05-21T05:46:16.495Z,42.97
2019-05-21T05:47:02.240Z,41.73
2019-05-21T05:47:48.332Z,41.70
2019-05-21T05:48:39.207Z,41.80
2019-05-21T05:49:30.768Z,42.60
2019-05-21T05:50:18.569Z,43.13
2019-05-21T05:51:05.278Z,43.07
2019-05-21T05:51:51.498Z,44.33
2019-05-21T05:52:37.572Z,42.03
2019-05-21T05:53:23.663Z,41.93
2019-05-21T05:54:09.861Z,44.30
2019-05-21T05:54:56.012Z,44.47
2019-05-21T05:55:41.614Z,41.77
2019-05-21T05:56:28.236Z,41.93
2019-05-21T05:57:14.333Z,41.20
2019-05-21T05:58:00.031Z,39.27
2019-05-21T05:58:45.732Z,44.33
2019-05-21T05:59:31.472Z,40.17
2019-05-21T06:00:18.219Z,42.03
2019-05-21T06:01:04.011Z,42.90
2019-05-21T06:01:49.779Z,44.20
2019-05-21T06:02:35.593Z,45.27
2019-05-21T06:03:21.438Z,42.77
2019-05-21T06:04:07.356Z,43.93
2019-05-21T06:04:53.696Z,44.63
2019-05-21T06:05:39.850Z,45.80
2019-05-21T06:06:25.515Z,43.70
2019-05-21T06:07:11.252Z,44.37
2019-05-21T06:08:00.105Z,43.97
2019-05-21T06:08:44.993Z,46.67
2019-05-21T06:09:30.635Z,46.03
2019-05-21T06:10:16.273Z,46.90
2019-05-21T06:11:02.153Z,46.90
2019-05-21T06:11:47.804Z,45.80
2019-05-21T06:12:33.453Z,45.53
2019-05-21T06:13:19.150Z,48.23
2019-05-21T06:14:04.815Z,47.40
2019-05-21T06:14:50.603Z,48.07
2019-05-21T06:15:36.287Z,47.33
2019-05-21T06:16:22.576Z,44.37
2019-05-21T06:17:08.874Z,45.10
2019-05-21T06:17:54.695Z,47.87
2019-05-21T06:18:40.396Z,45.87
2019-05-21T06:19:26.603Z,47.17
2019-05-21T06:20:12.899Z,45.27
2019-05-21T06:20:58.596Z,44.77
2019-05-21T06:21:44.921Z,46.90
2019-05-21T06:22:30.871Z,47.07
2019-05-21T06:23:18.410Z,46.67
2019-05-21T06:24:04.724Z,45.40
2019-05-21T06:24:51.128Z,44.30
2019-05-21T06:25:37.126Z,47.80
2019-05-21T06:26:23.048Z,48.90
2019-05-21T06:27:09.430Z,47.27
2019-05-21T06:27:55.324Z,44.77
2019-05-21T06:28:41.840Z,45.70
2019-05-21T06:29:28.212Z,47.33
2019-05-21T06:30:14.403Z,44.77
2019-05-21T06:31:00.334Z,45.80
2019-05-21T06:31:46.401Z,46.33
2019-05-21T06:32:32.894Z,45.87
2019-05-21T06:33:19.038Z,45.83
2019-05-21T06:34:05.167Z,43.80
2019-05-21T06:34:52.043Z,43.83
2019-05-21T06:35:38.407Z,44.17
2019-05-21T06:36:24.510Z,46.07
2019-05-21T06:37:11.123Z,43.67
2019-05-21T06:37:57.572Z,43.23
2019-05-21T06:38:44.100Z,44.70
2019-05-21T06:39:30.003Z,44.33
2019-05-21T06:40:16.593Z,43.50
2019-05-21T06:41:02.655Z,41.90
2019-05-21T06:41:48.773Z,44.43
2019-05-21T06:42:34.464Z,44.67
2019-05-21T06:43:20.087Z,45.10
2019-05-21T06:44:06.335Z,43.17
2019-05-21T06:44:52.198Z,44.83
2019-05-21T06:45:38.179Z,42.07
2019-05-21T06:46:24.283Z,42.50
2019-05-21T06:47:09.994Z,42.00
2019-05-21T06:47:55.735Z,44.57
2019-05-21T06:48:41.520Z,43.40
2019-05-21T06:49:27.876Z,44.37
2019-05-21T06:50:13.733Z,42.30
2019-05-21T06:51:00.033Z,41.83
2019-05-21T06:51:46.371Z,39.63
2019-05-21T06:52:32.125Z,39.57
2019-05-21T06:53:18.238Z,41.20
2019-05-21T06:54:04.296Z,41.80
2019-05-21T06:54:50.029Z,40.07
2019-05-21T06:55:36.169Z,39.57
2019-05-21T06:56:22.340Z,42.73
2019-05-21T06:57:08.025Z,40.53
2019-05-21T06:57:54.134Z,42.00
2019-05-21T06:58:41.879Z,39.93
2019-05-21T06:59:27.778Z,39.13
2019-05-21T07:00:15.702Z,39.30
2019-05-21T07:01:01.979Z,39.57
2019-05-21T07:01:48.377Z,39.73
2019-05-21T07:02:34.711Z,40.73
2019-05-21T07:03:21.026Z,37.80
2019-05-21T07:04:06.904Z,39.17
2019-05-21T07:04:52.812Z,40.90
2019-05-21T07:05:38.886Z,38.67
2019-05-21T07:06:25.226Z,40.10
2019-05-21T07:07:11.138Z,40.27
2019-05-21T07:07:58.568Z,37.70
2019-05-21T07:08:44.987Z,38.50
2019-05-21T07:09:30.940Z,37.80
2019-05-21T07:10:17.200Z,38.23
2019-05-21T07:11:03.910Z,39.80
2019-05-21T07:11:50.129Z,38.53
2019-05-21T07:12:36.116Z,38.93
2019-05-21T07:13:22.023Z,39.07
2019-05-21T07:14:07.897Z,38.70
2019-05-21T07:14:54.326Z,36.50
2019-05-21T07:15:40.829Z,37.57
2019-05-21T07:16:26.592Z,40.93
2019-05-21T07:17:12.621Z,38.57
2019-05-21T07:17:59.148Z,36.33
2019-05-21T07:18:45.498Z,39.07
2019-05-21T07:19:31.439Z,36.80
2019-05-21T07:20:18.493Z,37.10
2019-05-21T07:21:04.688Z,38.50
2019-05-21T07:21:51.014Z,37.90
2019-05-21T07:22:37.199Z,37.40
2019-05-21T07:23:23.192Z,35.53
2019-05-21T07:24:08.778Z,35.13
2019-05-21T07:24:54.359Z,37.07
2019-05-21T07:25:40.195Z,37.47
2019-05-21T07:26:25.920Z,35.47
2019-05-21T07:27:11.733Z,36.50
2019-05-21T07:27:58.054Z,36.20
2019-05-21T07:28:43.770Z,35.93
2019-05-21T07:29:29.860Z,37.93
2019-05-21T07:30:18.924Z,34.97
2019-05-21T07:31:05.345Z,35.57
2019-05-21T07:31:51.320Z,36.43
2019-05-21T07:32:37.340Z,35.67
2019-05-21T07:33:23.454Z,35.23
2019-05-21T07:34:09.155Z,35.73
2019-05-21T07:34:54.797Z,35.00
2019-05-21T07:35:40.499Z,36.37
2019-05-21T07:36:26.515Z,36.43
2019-05-21T07:37:12.898Z,35.27
2019-05-21T07:37:59.267Z,35.50
2019-05-21T07:38:53.542Z,37.83
2019-05-21T07:39:32.828Z,37.70
2019-05-21T07:40:19.081Z,36.03
2019-05-21T07:41:05.083Z,34.33
2019-05-21T07:41:51.484Z,34.97
2019-05-21T07:42:37.499Z,34.37
2019-05-21T07:43:25.443Z,34.50
2019-05-21T07:44:11.716Z,36.17
2019-05-21T07:44:57.898Z,35.40
2019-05-21T07:45:45.507Z,35.77
2019-05-21T07:46:31.579Z,35.43
2019-05-21T07:47:18.127Z,36.37
2019-05-21T07:48:04.415Z,36.73
2019-05-21T07:48:51.577Z,35.33
2019-05-21T07:49:38.096Z,35.97
2019-05-21T07:50:24.442Z,35.07
2019-05-21T07:51:10.804Z,34.93
2019-05-21T07:51:57.333Z,37.53
2019-05-21T07:52:44.463Z,36.13
2019-05-21T07:53:30.921Z,36.67
2019-05-21T07:54:17.633Z,35.37
2019-05-21T07:55:04.537Z,35.73
2019-05-21T07:55:50.987Z,35.43
2019-05-21T07:56:37.316Z,35.00
2019-05-21T07:57:23.683Z,35.30
2019-05-21T07:58:10.898Z,35.80
2019-05-21T07:58:57.287Z,35.13
2019-05-21T07:59:43.687Z,35.13
2019-05-21T08:00:29.384Z,35.43
2019-05-21T08:01:16.508Z,35.13
2019-05-21T08:02:02.751Z,37.00
2019-05-21T08:02:49.125Z,33.87
2019-05-21T08:03:36.129Z,36.40
2019-05-21T08:04:22.280Z,37.40
2019-05-21T08:05:08.724Z,34.70
2019-05-21T08:05:54.829Z,34.90
2019-05-21T08:06:40.775Z,35.60
2019-05-21T08:07:26.748Z,35.07
2019-05-21T08:08:12.763Z,35.27
2019-05-21T08:09:12.766Z,35.17
2019-05-21T08:09:46.585Z,34.90
2019-05-21T08:10:32.964Z,34.50
2019-05-21T08:11:18.883Z,35.47
2019-05-21T08:12:22.788Z,36.00
2019-05-21T08:12:53.311Z,33.50
2019-05-21T08:13:39.198Z,34.40
2019-05-21T08:14:25.670Z,36.13
2019-05-21T08:15:11.922Z,35.90
2019-05-21T08:15:57.612Z,35.23
2019-05-21T08:16:43.564Z,34.67
2019-05-21T08:17:31.347Z,35.53
2019-05-21T08:18:17.790Z,34.97
2019-05-21T08:19:03.962Z,35.63
2019-05-21T08:19:50.044Z,33.50
2019-05-21T08:20:35.805Z,35.30
2019-05-21T08:21:22.115Z,34.57
2019-05-21T08:22:07.977Z,32.73
2019-05-21T08:22:53.801Z,33.90
2019-05-21T08:23:40.173Z,32.13
2019-05-21T08:24:26.475Z,31.17
2019-05-21T08:25:14.689Z,31.73
2019-05-21T08:26:00.774Z,30.87
2019-05-21T08:26:47.193Z,30.60
2019-05-21T08:27:33.197Z,32.10
2019-05-21T08:28:19.629Z,30.83
2019-05-21T08:29:06.895Z,30.30
2019-05-21T08:29:54.296Z,32.60
2019-05-21T08:30:40.463Z,30.87
2019-05-21T08:31:26.384Z,31.30
2019-05-21T08:32:12.539Z,30.20
2019-05-21T08:32:58.657Z,30.77
2019-05-21T08:33:44.991Z,31.30
2019-05-21T08:34:32.102Z,31.43
2019-05-21T08:35:18.230Z,31.87
2019-05-21T08:36:05.860Z,31.90
2019-05-21T08:36:51.772Z,31.77
2019-05-21T08:37:37.417Z,31.00
2019-05-21T08:38:23.448Z,31.93
2019-05-21T08:39:09.541Z,32.37
2019-05-21T08:39:55.675Z,33.97
2019-05-21T08:40:41.446Z,31.87
2019-05-21T08:41:27.666Z,32.13
2019-05-21T08:42:13.470Z,32.90
2019-05-21T08:42:59.953Z,32.97
2019-05-21T08:43:46.240Z,31.57
2019-05-21T08:44:32.775Z,33.67
2019-05-21T08:45:19.619Z,34.50
2019-05-21T08:46:06.239Z,33.83
2019-05-21T08:46:52.279Z,36.50
2019-05-21T08:47:38.879Z,32.20
2019-05-21T08:48:25.416Z,33.13
2019-05-21T08:49:11.872Z,32.80
2019-05-21T08:49:58.354Z,34.80
2019-05-21T08:50:46.943Z,33.37
2019-05-21T08:51:33.441Z,34.30
2019-05-21T08:52:19.527Z,33.13
2019-05-21T08:53:05.668Z,32.87
2019-05-21T08:53:51.784Z,34.13
2019-05-21T08:54:48.009Z,33.37
2019-05-21T08:55:34.174Z,34.03
2019-05-21T08:56:20.327Z,35.93
2019-05-21T08:57:06.351Z,33.53
2019-05-21T08:58:06.591Z,33.30
2019-05-21T08:58:40.050Z,33.17
2019-05-21T08:59:26.007Z,30.50
2019-05-21T09:00:15.865Z,32.13
2019-05-21T09:01:01.672Z,32.47
2019-05-21T09:01:47.797Z,31.57
2019-05-21T09:02:33.851Z,33.97
2019-05-21T09:03:19.922Z,35.17
2019-05-21T09:04:05.957Z,34.30
2019-05-21T09:04:51.996Z,35.13
2019-05-21T09:05:38.294Z,34.43
2019-05-21T09:06:24.446Z,33.67
2019-05-21T09:07:10.627Z,33.57
2019-05-21T09:07:56.712Z,32.40
2019-05-21T09:08:42.822Z,29.83
2019-05-21T09:09:47.903Z,32.23
2019-05-21T09:10:16.207Z,29.20
2019-05-21T09:11:02.259Z,31.83
2019-05-21T09:11:47.994Z,29.43
2019-05-21T09:12:33.677Z,27.13
2019-05-21T09:13:19.323Z,28.53
2019-05-21T09:14:05.420Z,27.87
2019-05-21T09:14:51.110Z,26.20
2019-05-21T09:15:37.304Z,28.27
2019-05-21T09:16:22.896Z,28.83
2019-05-21T09:17:08.555Z,29.73
2019-05-21T09:17:54.331Z,27.47
2019-05-21T09:18:40.707Z,27.30
2019-05-21T09:19:26.952Z,28.10
2019-05-21T09:20:13.221Z,28.77
2019-05-21T09:20:59.357Z,28.53
2019-05-21T09:21:45.063Z,26.80
2019-05-21T09:22:30.777Z,26.77
2019-05-21T09:23:16.972Z,27.77
2019-05-21T09:24:02.629Z,25.73
2019-05-21T09:24:48.266Z,27.53
2019-05-21T09:25:34.343Z,28.03
2019-05-21T09:26:20.013Z,27.87
2019-05-21T09:27:05.702Z,29.00
2019-05-21T09:27:51.920Z,28.87
2019-05-21T09:28:37.792Z,26.37
2019-05-21T09:29:23.963Z,29.03
2019-05-21T09:30:10.406Z,26.87
2019-05-21T09:30:56.254Z,26.43
2019-05-21T09:31:41.936Z,25.73
2019-05-21T09:32:27.718Z,27.07
2019-05-21T09:33:13.991Z,26.93
2019-05-21T09:33:59.831Z,24.90
2019-05-21T09:34:49.044Z,25.77
2019-05-21T09:35:33.736Z,25.20
2019-05-21T09:36:19.528Z,24.33
2019-05-21T09:37:18.517Z,25.27
2019-05-21T09:37:55.225Z,26.03
2019-05-21T09:38:41.576Z,26.50
2019-05-21T09:39:27.986Z,25.57
2019-05-21T09:40:14.308Z,26.50
2019-05-21T09:41:00.100Z,25.57
2019-05-21T09:41:45.733Z,26.03
2019-05-21T09:42:31.423Z,26.17
2019-05-21T09:43:17.081Z,25.30
2019-05-21T09:44:03.095Z,24.67
2019-05-21T09:44:49.094Z,26.57
2019-05-21T09:45:35.181Z,26.27
2019-05-21T09:46:21.367Z,26.47
2019-05-21T09:47:07.044Z,25.60
2019-05-21T09:47:53.972Z,27.27
2019-05-21T09:48:39.971Z,26.20
2019-05-21T09:49:25.786Z,27.40
2019-05-21T09:50:12.160Z,26.00
2019-05-21T09:50:58.316Z,26.20
2019-05-21T09:51:44.344Z,28.17
2019-05-21T09:52:30.456Z,25.90
2019-05-21T09:53:16.313Z,25.77
2019-05-21T09:54:02.538Z,27.10
2019-05-21T09:54:48.712Z,26.83
2019-05-21T09:55:34.871Z,26.93
2019-05-21T09:56:32.675Z,27.90
2019-05-21T09:57:25.178Z,26.60
2019-05-21T09:58:28.876Z,24.67
2019-05-21T09:59:24.863Z,25.10
2019-05-21T10:00:37.213Z,24.20
2019-05-21T10:01:32.262Z,24.97
2019-05-21T10:02:20.936Z,25.07
2019-05-21T10:03:09.042Z,24.67
2019-05-21T10:03:56.521Z,25.13
2019-05-21T10:04:42.515Z,25.10